Main page
METAR-TAF:

METAR-TAF

Airports :

London, England

London City Airport

latitude: 51-30N, longitude: 000-03E, elevation: 5 m

Current weather observation

The report was made 28 minutes ago, at 23:50 UTC
Wind 4 kt from the South/Southwest, varying between South/Southeast and West/Southwest
Temperature 7°C
Humidity 70%
Pressure 1022 hPa
Visibility 10 km or more
Overcast at a height of 4000 ft

METAR: EGLC 192350Z AUTO 21004KT 160V250 9999 OVC040 07/02 Q1022

Time: 00:18 (00:18 UTC)

Forecast

The report was made 7 hours and 16 minutes ago, at 17:02 UTC
Forecast valid from 19 at 18 UTC to 19 at 22 UTC
Wind 6 kt from the West/Southwest
Visibility 10 km or more
Few clouds at a height of 4500 ft

TAF: EGLC 191702Z 1918/1922 25006KT 9999 FEW045

Weather observations and forecasts of more than 4000 airports (METAR and TAF reports).

The available stations are represented by yellow and red dots on the map.

Hover mouse over dot to see the name of the station.

Then click to see weather observations and forecasts.

To change the map : click on the green buttons with a black cross to zoom in, on the green button with a dash to zoom out, or on the green arrows for adjacent maps.


METAR-TAF: